Flight Briefing for CPX31

Departure Arrival
Tokyo-Narita International Airport (RJAA)
Click to view FAA NOTAMS
Ted Stevens Anchorage International Airport (PANC)
Click to view FAA NOTAMS
Departure Time Arrival Time
N/A N/A
Aircraft Distance
B767-300BDSF 2981nm
Departure METAR Arrival METAR
RJAA 250300Z 18005KT CAVOK 30/13 Q1016 NOSIG PANC 250253Z 33005KT 10SM FEW050 SCT060 SCT120 16/05 A3018 RMK AO2 SLP222 T01610050 58013
Suggested Route
CUPID Y808 ALLEN Y812 SCORE R591 EHM R591 HAMND NEELL6


View recent IFR Routes data
Notes



Charts and Procedures

Charts for RJAA
No chart available
Charts for PANC
No chart available

Windy.com Weather Map